sensor_id;sensor_type;location;lat;lon;timestamp;temperature;humidity
29571;DHT22;16814;52.118;11.436;2023-02-02T00:01:37;4.20;99.90
29571;DHT22;16814;52.118;11.436;2023-02-02T00:04:04;4.20;99.90
29571;DHT22;16814;52.118;11.436;2023-02-02T00:06:32;4.20;99.90
29571;DHT22;16814;52.118;11.436;2023-02-02T00:09:01;4.20;99.90
29571;DHT22;16814;52.118;11.436;2023-02-02T00:11:28;4.20;99.90
29571;DHT22;16814;52.118;11.436;2023-02-02T00:13:54;4.10;99.90
29571;DHT22;16814;52.118;11.436;2023-02-02T00:16:33;4.20;99.90
29571;DHT22;16814;52.118;11.436;2023-02-02T00:19:02;4.10;99.90
29571;DHT22;16814;52.118;11.436;2023-02-02T00:21:30;4.10;99.90
29571;DHT22;16814;52.118;11.436;2023-02-02T00:23:56;4.10;99.90
29571;DHT22;16814;52.118;11.436;2023-02-02T00:26:23;4.10;99.90
29571;DHT22;16814;52.118;11.436;2023-02-02T00:28:49;4.10;99.90
29571;DHT22;16814;52.118;11.436;2023-02-02T00:31:17;4.00;99.90
29571;DHT22;16814;52.118;11.436;2023-02-02T00:33:53;4.10;99.90
29571;DHT22;16814;52.118;11.436;2023-02-02T00:36:21;4.00;99.90
29571;DHT22;16814;52.118;11.436;2023-02-02T00:38:49;4.00;99.90
29571;DHT22;16814;52.118;11.436;2023-02-02T00:41:16;4.00;99.90
29571;DHT22;16814;52.118;11.436;2023-02-02T00:43:43;4.00;99.90
29571;DHT22;16814;52.118;11.436;2023-02-02T00:46:13;4.00;99.90
29571;DHT22;16814;52.118;11.436;2023-02-02T00:48:42;3.90;99.90
29571;DHT22;16814;52.118;11.436;2023-02-02T00:51:09;3.90;99.90
29571;DHT22;16814;52.118;11.436;2023-02-02T00:53:34;3.90;99.90
29571;DHT22;16814;52.118;11.436;2023-02-02T00:56:00;3.90;99.90
29571;DHT22;16814;52.118;11.436;2023-02-02T00:58:26;3.80;99.90
29571;DHT22;16814;52.118;11.436;2023-02-02T01:00:54;3.90;99.90
29571;DHT22;16814;52.118;11.436;2023-02-02T01:03:19;3.80;99.90
29571;DHT22;16814;52.118;11.436;2023-02-02T01:05:45;3.90;99.90
29571;DHT22;16814;52.118;11.436;2023-02-02T01:08:11;3.90;99.90
29571;DHT22;16814;52.118;11.436;2023-02-02T01:10:38;3.90;99.90
29571;DHT22;16814;52.118;11.436;2023-02-02T01:13:05;3.90;99.90
29571;DHT22;16814;52.118;11.436;2023-02-02T01:15:31;3.90;99.90
29571;DHT22;16814;52.118;11.436;2023-02-02T01:17:59;3.90;99.90
29571;DHT22;16814;52.118;11.436;2023-02-02T01:20:26;4.00;99.90
29571;DHT22;16814;52.118;11.436;2023-02-02T01:22:53;4.00;99.90
29571;DHT22;16814;52.118;11.436;2023-02-02T01:25:19;4.00;99.90
29571;DHT22;16814;52.118;11.436;2023-02-02T01:27:44;4.10;99.90
29571;DHT22;16814;52.118;11.436;2023-02-02T01:30:10;4.10;99.90
29571;DHT22;16814;52.118;11.436;2023-02-02T01:32:39;4.10;99.90
29571;DHT22;16814;52.118;11.436;2023-02-02T01:35:06;4.10;99.90
29571;DHT22;16814;52.118;11.436;2023-02-02T01:37:33;4.10;99.90
29571;DHT22;16814;52.118;11.436;2023-02-02T01:39:59;4.20;99.90
29571;DHT22;16814;52.118;11.436;2023-02-02T01:42:26;4.20;99.90
29571;DHT22;16814;52.118;11.436;2023-02-02T01:45:13;4.20;99.90
29571;DHT22;16814;52.118;11.436;2023-02-02T01:47:50;4.20;99.90
29571;DHT22;16814;52.118;11.436;2023-02-02T01:50:22;4.10;99.90
29571;DHT22;16814;52.118;11.436;2023-02-02T01:52:51;4.20;99.90
29571;DHT22;16814;52.118;11.436;2023-02-02T01:55:23;4.20;99.90
29571;DHT22;16814;52.118;11.436;2023-02-02T01:58:02;4.20;99.90
29571;DHT22;16814;52.118;11.436;2023-02-02T02:00:30;4.20;99.90
29571;DHT22;16814;52.118;11.436;2023-02-02T02:03:05;4.30;99.90
29571;DHT22;16814;52.118;11.436;2023-02-02T02:05:41;4.30;99.90
29571;DHT22;16814;52.118;11.436;2023-02-02T02:08:20;4.30;99.90
29571;DHT22;16814;52.118;11.436;2023-02-02T02:10:47;4.40;99.90
29571;DHT22;16814;52.118;11.436;2023-02-02T02:13:16;4.40;99.90
29571;DHT22;16814;52.118;11.436;2023-02-02T02:16:08;4.40;99.90
29571;DHT22;16814;52.118;11.436;2023-02-02T02:22:03;4.40;99.90
29571;DHT22;16814;52.118;11.436;2023-02-02T02:25:33;4.40;99.90
29571;DHT22;16814;52.118;11.436;2023-02-02T02:35:46;4.30;99.90
29571;DHT22;16814;52.118;11.436;2023-02-02T02:37:53;4.30;99.90
29571;DHT22;16814;52.118;11.436;2023-02-02T02:40:41;4.30;99.90
29571;DHT22;16814;52.118;11.436;2023-02-02T02:43:33;4.30;99.90
29571;DHT22;16814;52.118;11.436;2023-02-02T02:46:00;4.40;99.90
29571;DHT22;16814;52.118;11.436;2023-02-02T02:48:29;4.30;99.90
29571;DHT22;16814;52.118;11.436;2023-02-02T02:51:37;4.30;99.90
29571;DHT22;16814;52.118;11.436;2023-02-02T02:53:56;4.30;99.90
29571;DHT22;16814;52.118;11.436;2023-02-02T02:56:32;4.30;99.90
29571;DHT22;16814;52.118;11.436;2023-02-02T02:59:09;4.30;99.90
29571;DHT22;16814;52.118;11.436;2023-02-02T03:07:47;4.40;99.90
29571;DHT22;16814;52.118;11.436;2023-02-02T03:10:18;4.40;99.90
29571;DHT22;16814;52.118;11.436;2023-02-02T03:12:52;4.40;99.90
29571;DHT22;16814;52.118;11.436;2023-02-02T03:15:20;4.40;99.90
29571;DHT22;16814;52.118;11.436;2023-02-02T03:17:48;4.40;99.90
29571;DHT22;16814;52.118;11.436;2023-02-02T03:20:16;4.40;99.90
29571;DHT22;16814;52.118;11.436;2023-02-02T03:22:44;4.40;99.90
29571;DHT22;16814;52.118;11.436;2023-02-02T03:25:10;4.40;99.90
29571;DHT22;16814;52.118;11.436;2023-02-02T03:27:37;4.40;99.90
29571;DHT22;16814;52.118;11.436;2023-02-02T03:30:12;4.40;99.90
29571;DHT22;16814;52.118;11.436;2023-02-02T03:32:40;4.30;99.90
29571;DHT22;16814;52.118;11.436;2023-02-02T03:35:06;4.30;99.90
29571;DHT22;16814;52.118;11.436;2023-02-02T03:37:32;4.30;99.90
29571;DHT22;16814;52.118;11.436;2023-02-02T03:39:59;4.30;99.90
29571;DHT22;16814;52.118;11.436;2023-02-02T03:42:26;4.30;99.90
29571;DHT22;16814;52.118;11.436;2023-02-02T03:44:51;4.30;99.90
29571;DHT22;16814;52.118;11.436;2023-02-02T03:47:17;4.30;99.90
29571;DHT22;16814;52.118;11.436;2023-02-02T03:49:44;4.40;99.90
29571;DHT22;16814;52.118;11.436;2023-02-02T03:52:12;4.30;99.90
29571;DHT22;16814;52.118;11.436;2023-02-02T03:54:37;4.30;99.90
29571;DHT22;16814;52.118;11.436;2023-02-02T03:57:05;4.30;99.90
29571;DHT22;16814;52.118;11.436;2023-02-02T03:59:31;4.20;99.90
29571;DHT22;16814;52.118;11.436;2023-02-02T04:01:58;4.20;99.90
29571;DHT22;16814;52.118;11.436;2023-02-02T04:04:26;4.20;99.90
29571;DHT22;16814;52.118;11.436;2023-02-02T04:06:52;4.20;99.90
29571;DHT22;16814;52.118;11.436;2023-02-02T04:09:19;4.10;99.90
29571;DHT22;16814;52.118;11.436;2023-02-02T04:11:45;4.10;99.90
29571;DHT22;16814;52.118;11.436;2023-02-02T04:14:11;4.20;99.90
29571;DHT22;16814;52.118;11.436;2023-02-02T04:16:39;4.10;99.90
29571;DHT22;16814;52.118;11.436;2023-02-02T04:19:06;4.20;99.90
29571;DHT22;16814;52.118;11.436;2023-02-02T04:21:35;4.20;99.90
29571;DHT22;16814;52.118;11.436;2023-02-02T04:24:02;4.20;99.90
29571;DHT22;16814;52.118;11.436;2023-02-02T04:26:29;4.20;99.90
29571;DHT22;16814;52.118;11.436;2023-02-02T04:28:56;4.20;99.90
29571;DHT22;16814;52.118;11.436;2023-02-02T04:31:23;4.20;99.90
29571;DHT22;16814;52.118;11.436;2023-02-02T04:33:48;4.20;99.90
29571;DHT22;16814;52.118;11.436;2023-02-02T04:36:15;4.20;99.90
29571;DHT22;16814;52.118;11.436;2023-02-02T04:38:42;4.20;99.90
29571;DHT22;16814;52.118;11.436;2023-02-02T04:41:10;4.20;99.90
29571;DHT22;16814;52.118;11.436;2023-02-02T04:43:39;4.20;99.90
29571;DHT22;16814;52.118;11.436;2023-02-02T04:46:08;4.20;99.90
29571;DHT22;16814;52.118;11.436;2023-02-02T04:48:34;4.20;99.90
29571;DHT22;16814;52.118;11.436;2023-02-02T04:51:06;4.20;99.90
29571;DHT22;16814;52.118;11.436;2023-02-02T04:53:32;4.20;99.90
29571;DHT22;16814;52.118;11.436;2023-02-02T04:56:06;4.20;99.90
29571;DHT22;16814;52.118;11.436;2023-02-02T04:58:32;4.20;99.90
29571;DHT22;16814;52.118;11.436;2023-02-02T05:01:00;4.30;99.90
29571;DHT22;16814;52.118;11.436;2023-02-02T05:03:33;4.20;99.90
29571;DHT22;16814;52.118;11.436;2023-02-02T05:06:03;4.30;99.90
29571;DHT22;16814;52.118;11.436;2023-02-02T05:08:30;4.20;99.90
29571;DHT22;16814;52.118;11.436;2023-02-02T05:10:58;4.20;99.90
29571;DHT22;16814;52.118;11.436;2023-02-02T05:13:23;4.20;99.90
29571;DHT22;16814;52.118;11.436;2023-02-02T05:15:49;4.30;99.90
29571;DHT22;16814;52.118;11.436;2023-02-02T05:18:16;4.30;99.90
29571;DHT22;16814;52.118;11.436;2023-02-02T05:20:43;4.30;99.90
29571;DHT22;16814;52.118;11.436;2023-02-02T05:23:10;4.30;99.90
29571;DHT22;16814;52.118;11.436;2023-02-02T05:25:44;4.30;99.90
29571;DHT22;16814;52.118;11.436;2023-02-02T05:28:16;4.30;99.90
29571;DHT22;16814;52.118;11.436;2023-02-02T05:30:42;4.40;99.90
29571;DHT22;16814;52.118;11.436;2023-02-02T05:33:08;4.40;99.90
29571;DHT22;16814;52.118;11.436;2023-02-02T05:35:34;4.40;99.90
29571;DHT22;16814;52.118;11.436;2023-02-02T05:38:02;4.40;99.90
29571;DHT22;16814;52.118;11.436;2023-02-02T05:40:30;4.30;99.90
29571;DHT22;16814;52.118;11.436;2023-02-02T05:42:57;4.30;99.90
29571;DHT22;16814;52.118;11.436;2023-02-02T05:45:23;4.30;99.90
29571;DHT22;16814;52.118;11.436;2023-02-02T05:47:53;4.20;99.90
29571;DHT22;16814;52.118;11.436;2023-02-02T05:50:20;4.30;99.90
29571;DHT22;16814;52.118;11.436;2023-02-02T05:52:49;4.30;99.90
29571;DHT22;16814;52.118;11.436;2023-02-02T05:55:16;4.20;99.90
29571;DHT22;16814;52.118;11.436;2023-02-02T05:57:45;4.20;99.90
29571;DHT22;16814;52.118;11.436;2023-02-02T06:00:13;4.20;99.90
29571;DHT22;16814;52.118;11.436;2023-02-02T06:02:40;4.20;99.90
29571;DHT22;16814;52.118;11.436;2023-02-02T06:05:07;4.20;99.90
29571;DHT22;16814;52.118;11.436;2023-02-02T06:07:35;4.20;99.90
29571;DHT22;16814;52.118;11.436;2023-02-02T06:10:02;4.10;99.90
29571;DHT22;16814;52.118;11.436;2023-02-02T06:12:29;4.10;99.90
29571;DHT22;16814;52.118;11.436;2023-02-02T06:14:56;4.10;99.90
29571;DHT22;16814;52.118;11.436;2023-02-02T06:17:22;4.10;99.90
29571;DHT22;16814;52.118;11.436;2023-02-02T06:19:48;4.10;99.90
29571;DHT22;16814;52.118;11.436;2023-02-02T06:22:15;4.10;99.90
29571;DHT22;16814;52.118;11.436;2023-02-02T06:24:42;4.00;99.90
29571;DHT22;16814;52.118;11.436;2023-02-02T06:27:08;4.10;99.90
29571;DHT22;16814;52.118;11.436;2023-02-02T06:29:34;4.00;99.90
29571;DHT22;16814;52.118;11.436;2023-02-02T06:32:00;4.10;99.90
29571;DHT22;16814;52.118;11.436;2023-02-02T06:34:27;4.10;99.90
29571;DHT22;16814;52.118;11.436;2023-02-02T06:36:54;4.10;99.90
29571;DHT22;16814;52.118;11.436;2023-02-02T06:39:21;4.10;99.90
29571;DHT22;16814;52.118;11.436;2023-02-02T06:41:49;4.10;99.90
29571;DHT22;16814;52.118;11.436;2023-02-02T06:44:16;4.00;99.90
29571;DHT22;16814;52.118;11.436;2023-02-02T06:46:45;4.00;99.90
29571;DHT22;16814;52.118;11.436;2023-02-02T06:49:11;4.00;99.90
29571;DHT22;16814;52.118;11.436;2023-02-02T06:51:37;4.10;99.90
29571;DHT22;16814;52.118;11.436;2023-02-02T06:54:02;4.10;99.90
29571;DHT22;16814;52.118;11.436;2023-02-02T06:56:29;4.10;99.90
29571;DHT22;16814;52.118;11.436;2023-02-02T06:58:57;4.10;99.90
29571;DHT22;16814;52.118;11.436;2023-02-02T07:01:24;4.10;99.90
29571;DHT22;16814;52.118;11.436;2023-02-02T07:03:50;4.10;99.90
29571;DHT22;16814;52.118;11.436;2023-02-02T07:06:27;4.10;99.90
29571;DHT22;16814;52.118;11.436;2023-02-02T07:08:54;4.00;99.90
29571;DHT22;16814;52.118;11.436;2023-02-02T07:11:21;4.10;99.90
29571;DHT22;16814;52.118;11.436;2023-02-02T07:13:50;4.10;99.90
29571;DHT22;16814;52.118;11.436;2023-02-02T07:16:17;4.10;99.90
29571;DHT22;16814;52.118;11.436;2023-02-02T07:18:44;4.20;99.90
29571;DHT22;16814;52.118;11.436;2023-02-02T07:21:23;4.10;99.90
29571;DHT22;16814;52.118;11.436;2023-02-02T07:23:52;4.20;99.90
29571;DHT22;16814;52.118;11.436;2023-02-02T07:26:18;4.20;99.90
29571;DHT22;16814;52.118;11.436;2023-02-02T07:28:46;4.20;99.90
29571;DHT22;16814;52.118;11.436;2023-02-02T07:31:19;4.20;99.90
29571;DHT22;16814;52.118;11.436;2023-02-02T07:33:47;4.20;99.90
29571;DHT22;16814;52.118;11.436;2023-02-02T07:36:15;4.20;99.90
29571;DHT22;16814;52.118;11.436;2023-02-02T07:38:44;4.20;99.90
29571;DHT22;16814;52.118;11.436;2023-02-02T07:41:10;4.20;99.90
29571;DHT22;16814;52.118;11.436;2023-02-02T07:43:37;4.20;99.90
29571;DHT22;16814;52.118;11.436;2023-02-02T07:46:16;4.20;99.90
29571;DHT22;16814;52.118;11.436;2023-02-02T07:48:43;4.30;99.90
29571;DHT22;16814;52.118;11.436;2023-02-02T07:51:12;4.30;99.90
29571;DHT22;16814;52.118;11.436;2023-02-02T07:53:38;4.30;99.90
29571;DHT22;16814;52.118;11.436;2023-02-02T07:56:36;4.30;99.90
29571;DHT22;16814;52.118;11.436;2023-02-02T07:59:03;4.40;99.90
29571;DHT22;16814;52.118;11.436;2023-02-02T08:01:30;4.40;99.90
29571;DHT22;16814;52.118;11.436;2023-02-02T08:03:57;4.50;99.90
29571;DHT22;16814;52.118;11.436;2023-02-02T08:06:31;4.60;99.90
29571;DHT22;16814;52.118;11.436;2023-02-02T08:09:01;4.60;99.90
29571;DHT22;16814;52.118;11.436;2023-02-02T08:11:29;4.60;99.90
29571;DHT22;16814;52.118;11.436;2023-02-02T08:13:58;4.70;99.90
29571;DHT22;16814;52.118;11.436;2023-02-02T08:16:27;4.70;99.90
29571;DHT22;16814;52.118;11.436;2023-02-02T08:18:55;4.70;99.90
29571;DHT22;16814;52.118;11.436;2023-02-02T08:21:21;4.70;99.90
29571;DHT22;16814;52.118;11.436;2023-02-02T08:23:48;4.70;99.90
29571;DHT22;16814;52.118;11.436;2023-02-02T08:26:36;4.70;99.90
29571;DHT22;16814;52.118;11.436;2023-02-02T08:29:07;4.70;99.90
29571;DHT22;16814;52.118;11.436;2023-02-02T08:31:35;4.70;99.90
29571;DHT22;16814;52.118;11.436;2023-02-02T08:34:03;4.80;99.90
29571;DHT22;16814;52.118;11.436;2023-02-02T08:36:31;4.80;99.90
29571;DHT22;16814;52.118;11.436;2023-02-02T08:39:05;4.90;99.90
29571;DHT22;16814;52.118;11.436;2023-02-02T08:41:34;4.90;99.90
29571;DHT22;16814;52.118;11.436;2023-02-02T08:44:05;4.90;99.90
29571;DHT22;16814;52.118;11.436;2023-02-02T08:46:48;4.90;99.90
29571;DHT22;16814;52.118;11.436;2023-02-02T08:49:15;5.00;99.90
29571;DHT22;16814;52.118;11.436;2023-02-02T08:51:40;5.10;99.90
29571;DHT22;16814;52.118;11.436;2023-02-02T08:54:07;5.10;99.90
29571;DHT22;16814;52.118;11.436;2023-02-02T08:56:33;5.10;99.90
29571;DHT22;16814;52.118;11.436;2023-02-02T08:58:59;5.10;99.90
29571;DHT22;16814;52.118;11.436;2023-02-02T09:01:30;5.10;99.90
29571;DHT22;16814;52.118;11.436;2023-02-02T09:06:37;5.10;99.90
29571;DHT22;16814;52.118;11.436;2023-02-02T09:09:07;5.10;99.90
29571;DHT22;16814;52.118;11.436;2023-02-02T09:11:35;5.20;99.90
29571;DHT22;16814;52.118;11.436;2023-02-02T09:14:02;5.30;99.90
29571;DHT22;16814;52.118;11.436;2023-02-02T09:16:31;5.30;99.90
29571;DHT22;16814;52.118;11.436;2023-02-02T09:18:59;5.30;99.90
29571;DHT22;16814;52.118;11.436;2023-02-02T09:21:27;5.40;99.90
29571;DHT22;16814;52.118;11.436;2023-02-02T09:23:54;5.40;99.90
29571;DHT22;16814;52.118;11.436;2023-02-02T09:26:24;5.40;99.90
29571;DHT22;16814;52.118;11.436;2023-02-02T09:28:59;5.40;99.90
29571;DHT22;16814;52.118;11.436;2023-02-02T09:31:27;5.50;99.90
29571;DHT22;16814;52.118;11.436;2023-02-02T09:33:59;5.50;99.90
29571;DHT22;16814;52.118;11.436;2023-02-02T09:36:26;5.50;99.90
29571;DHT22;16814;52.118;11.436;2023-02-02T09:38:52;5.50;99.90
29571;DHT22;16814;52.118;11.436;2023-02-02T09:44:49;5.50;99.90
29571;DHT22;16814;52.118;11.436;2023-02-02T09:47:51;5.50;99.90
29571;DHT22;16814;52.118;11.436;2023-02-02T09:50:47;5.60;99.90
29571;DHT22;16814;52.118;11.436;2023-02-02T09:56:30;5.80;99.90
29571;DHT22;16814;52.118;11.436;2023-02-02T09:59:00;5.80;99.90
29571;DHT22;16814;52.118;11.436;2023-02-02T10:01:35;5.70;99.90
29571;DHT22;16814;52.118;11.436;2023-02-02T10:04:26;5.80;99.90
29571;DHT22;16814;52.118;11.436;2023-02-02T10:06:59;5.80;99.90
29571;DHT22;16814;52.118;11.436;2023-02-02T10:09:47;6.00;99.90
29571;DHT22;16814;52.118;11.436;2023-02-02T10:12:40;6.10;99.90
29571;DHT22;16814;52.118;11.436;2023-02-02T10:21:02;6.20;99.90
29571;DHT22;16814;52.118;11.436;2023-02-02T10:23:40;6.10;99.90
29571;DHT22;16814;52.118;11.436;2023-02-02T10:26:42;6.00;99.90
29571;DHT22;16814;52.118;11.436;2023-02-02T10:29:30;6.00;99.90
29571;DHT22;16814;52.118;11.436;2023-02-02T10:32:17;6.10;99.90
29571;DHT22;16814;52.118;11.436;2023-02-02T10:46:42;5.80;99.90
29571;DHT22;16814;52.118;11.436;2023-02-02T10:49:36;5.90;99.90
29571;DHT22;16814;52.118;11.436;2023-02-02T10:52:16;6.00;99.90
29571;DHT22;16814;52.118;11.436;2023-02-02T10:55:18;5.90;99.90
29571;DHT22;16814;52.118;11.436;2023-02-02T10:58:19;5.80;99.90
29571;DHT22;16814;52.118;11.436;2023-02-02T11:00:58;5.80;99.90
29571;DHT22;16814;52.118;11.436;2023-02-02T11:03:36;6.10;99.90
29571;DHT22;16814;52.118;11.436;2023-02-02T11:06:06;6.50;99.90
29571;DHT22;16814;52.118;11.436;2023-02-02T11:08:55;6.70;99.90
29571;DHT22;16814;52.118;11.436;2023-02-02T11:11:59;7.10;99.90
29571;DHT22;16814;52.118;11.436;2023-02-02T11:17:29;7.40;99.90
29571;DHT22;16814;52.118;11.436;2023-02-02T11:19:57;7.60;99.90
29571;DHT22;16814;52.118;11.436;2023-02-02T11:22:36;7.60;99.90
29571;DHT22;16814;52.118;11.436;2023-02-02T11:25:24;7.60;99.90
29571;DHT22;16814;52.118;11.436;2023-02-02T11:27:52;7.60;99.90
29571;DHT22;16814;52.118;11.436;2023-02-02T11:30:35;7.70;99.90
29571;DHT22;16814;52.118;11.436;2023-02-02T11:33:35;7.80;99.90
29571;DHT22;16814;52.118;11.436;2023-02-02T11:36:23;7.90;99.90
29571;DHT22;16814;52.118;11.436;2023-02-02T11:39:13;8.00;99.90
29571;DHT22;16814;52.118;11.436;2023-02-02T11:41:39;8.20;99.90
29571;DHT22;16814;52.118;11.436;2023-02-02T11:44:19;8.20;99.90
29571;DHT22;16814;52.118;11.436;2023-02-02T11:46:50;8.30;99.90
29571;DHT22;16814;52.118;11.436;2023-02-02T11:49:20;8.20;99.90
29571;DHT22;16814;52.118;11.436;2023-02-02T11:52:12;8.10;99.90
29571;DHT22;16814;52.118;11.436;2023-02-02T11:55:00;8.20;99.90
29571;DHT22;16814;52.118;11.436;2023-02-02T12:00:33;7.90;99.90
29571;DHT22;16814;52.118;11.436;2023-02-02T12:02:59;7.70;99.90
29571;DHT22;16814;52.118;11.436;2023-02-02T12:05:35;7.70;99.90
29571;DHT22;16814;52.118;11.436;2023-02-02T12:08:02;7.60;99.90
29571;DHT22;16814;52.118;11.436;2023-02-02T12:10:38;7.50;99.90
29571;DHT22;16814;52.118;11.436;2023-02-02T12:13:28;7.60;99.90
29571;DHT22;16814;52.118;11.436;2023-02-02T12:19:33;7.50;99.90
29571;DHT22;16814;52.118;11.436;2023-02-02T12:22:36;7.60;99.90
29571;DHT22;16814;52.118;11.436;2023-02-02T12:40:02;7.90;99.90
29571;DHT22;16814;52.118;11.436;2023-02-02T12:49:10;7.90;99.90
29571;DHT22;16814;52.118;11.436;2023-02-02T12:57:41;7.60;99.90
29571;DHT22;16814;52.118;11.436;2023-02-02T13:00:32;7.60;99.90
29571;DHT22;16814;52.118;11.436;2023-02-02T13:12:10;7.40;99.90
29571;DHT22;16814;52.118;11.436;2023-02-02T13:14:57;7.30;99.90
29571;DHT22;16814;52.118;11.436;2023-02-02T13:17:41;7.20;99.90
29571;DHT22;16814;52.118;11.436;2023-02-02T13:23:30;7.10;99.90
29571;DHT22;16814;52.118;11.436;2023-02-02T13:26:08;7.20;99.90
29571;DHT22;16814;52.118;11.436;2023-02-02T13:28:42;7.10;99.90
29571;DHT22;16814;52.118;11.436;2023-02-02T13:31:26;7.00;99.90
29571;DHT22;16814;52.118;11.436;2023-02-02T13:34:22;6.90;99.90
29571;DHT22;16814;52.118;11.436;2023-02-02T13:40:15;6.80;99.90
29571;DHT22;16814;52.118;11.436;2023-02-02T14:00:43;7.30;99.90
29571;DHT22;16814;52.118;11.436;2023-02-02T14:03:35;7.50;99.90
29571;DHT22;16814;52.118;11.436;2023-02-02T14:06:20;7.50;99.90
29571;DHT22;16814;52.118;11.436;2023-02-02T14:09:02;7.50;99.90
29571;DHT22;16814;52.118;11.436;2023-02-02T14:11:33;7.40;99.90
29571;DHT22;16814;52.118;11.436;2023-02-02T14:14:21;7.60;99.90
29571;DHT22;16814;52.118;11.436;2023-02-02T14:20:00;7.60;99.90
29571;DHT22;16814;52.118;11.436;2023-02-02T14:22:46;7.60;99.90
29571;DHT22;16814;52.118;11.436;2023-02-02T14:25:46;7.60;99.90
29571;DHT22;16814;52.118;11.436;2023-02-02T14:28:44;7.60;99.90
29571;DHT22;16814;52.118;11.436;2023-02-02T14:31:40;7.60;99.90
29571;DHT22;16814;52.118;11.436;2023-02-02T14:43:22;7.30;99.90
29571;DHT22;16814;52.118;11.436;2023-02-02T14:51:20;7.30;99.90
29571;DHT22;16814;52.118;11.436;2023-02-02T14:54:14;7.30;99.90
29571;DHT22;16814;52.118;11.436;2023-02-02T14:56:45;7.20;99.90
29571;DHT22;16814;52.118;11.436;2023-02-02T14:59:35;7.10;99.90
29571;DHT22;16814;52.118;11.436;2023-02-02T15:04:36;7.00;99.90
29571;DHT22;16814;52.118;11.436;2023-02-02T15:09:50;7.00;99.90
29571;DHT22;16814;52.118;11.436;2023-02-02T15:15:24;6.80;99.90
29571;DHT22;16814;52.118;11.436;2023-02-02T15:18:09;6.70;99.90
29571;DHT22;16814;52.118;11.436;2023-02-02T15:20:42;6.80;99.90
29571;DHT22;16814;52.118;11.436;2023-02-02T15:28:56;6.60;99.90
29571;DHT22;16814;52.118;11.436;2023-02-02T15:34:10;6.30;99.90
29571;DHT22;16814;52.118;11.436;2023-02-02T15:36:41;6.20;99.90
29571;DHT22;16814;52.118;11.436;2023-02-02T15:39:30;6.20;99.90
29571;DHT22;16814;52.118;11.436;2023-02-02T15:41:57;6.20;99.90
29571;DHT22;16814;52.118;11.436;2023-02-02T15:44:42;6.10;99.90
29571;DHT22;16814;52.118;11.436;2023-02-02T15:47:15;6.20;99.90
29571;DHT22;16814;52.118;11.436;2023-02-02T15:49:41;6.20;99.90
29571;DHT22;16814;52.118;11.436;2023-02-02T15:52:13;6.30;99.90
29571;DHT22;16814;52.118;11.436;2023-02-02T15:54:51;6.20;99.90
29571;DHT22;16814;52.118;11.436;2023-02-02T15:59:53;5.90;99.90
29571;DHT22;16814;52.118;11.436;2023-02-02T16:04:53;5.80;99.90
29571;DHT22;16814;52.118;11.436;2023-02-02T16:07:22;5.70;99.90
29571;DHT22;16814;52.118;11.436;2023-02-02T16:09:50;5.50;99.90
29571;DHT22;16814;52.118;11.436;2023-02-02T16:12:21;5.30;99.90
29571;DHT22;16814;52.118;11.436;2023-02-02T16:14:52;5.40;99.90
29571;DHT22;16814;52.118;11.436;2023-02-02T16:17:22;5.40;99.90
29571;DHT22;16814;52.118;11.436;2023-02-02T16:19:49;5.50;99.90
29571;DHT22;16814;52.118;11.436;2023-02-02T16:22:19;5.50;99.90
29571;DHT22;16814;52.118;11.436;2023-02-02T16:24:54;5.40;99.90
29571;DHT22;16814;52.118;11.436;2023-02-02T16:27:24;5.40;99.90
29571;DHT22;16814;52.118;11.436;2023-02-02T16:29:50;5.50;99.90
29571;DHT22;16814;52.118;11.436;2023-02-02T16:32:26;5.40;99.90
29571;DHT22;16814;52.118;11.436;2023-02-02T16:34:53;5.40;99.90
29571;DHT22;16814;52.118;11.436;2023-02-02T16:37:23;5.40;99.90
29571;DHT22;16814;52.118;11.436;2023-02-02T16:39:52;5.40;99.90
29571;DHT22;16814;52.118;11.436;2023-02-02T16:42:29;5.50;99.90
29571;DHT22;16814;52.118;11.436;2023-02-02T16:44:56;5.60;99.90
29571;DHT22;16814;52.118;11.436;2023-02-02T16:52:34;5.50;99.90
29571;DHT22;16814;52.118;11.436;2023-02-02T16:55:15;5.60;99.90
29571;DHT22;16814;52.118;11.436;2023-02-02T16:57:43;5.50;99.90
29571;DHT22;16814;52.118;11.436;2023-02-02T17:00:21;5.50;99.90
29571;DHT22;16814;52.118;11.436;2023-02-02T17:02:49;5.30;99.90
29571;DHT22;16814;52.118;11.436;2023-02-02T17:05:36;5.10;99.90
29571;DHT22;16814;52.118;11.436;2023-02-02T17:08:09;5.00;99.90
29571;DHT22;16814;52.118;11.436;2023-02-02T17:10:41;5.20;99.90
29571;DHT22;16814;52.118;11.436;2023-02-02T17:15:54;5.20;99.90
29571;DHT22;16814;52.118;11.436;2023-02-02T17:18:20;5.10;99.90
29571;DHT22;16814;52.118;11.436;2023-02-02T17:20:45;4.90;99.90
29571;DHT22;16814;52.118;11.436;2023-02-02T17:23:16;4.70;99.90
29571;DHT22;16814;52.118;11.436;2023-02-02T17:25:42;4.70;99.90
29571;DHT22;16814;52.118;11.436;2023-02-02T17:28:13;4.80;99.90
29571;DHT22;16814;52.118;11.436;2023-02-02T17:30:42;4.70;99.90
29571;DHT22;16814;52.118;11.436;2023-02-02T17:33:13;4.60;99.90
29571;DHT22;16814;52.118;11.436;2023-02-02T17:35:39;4.50;99.90
29571;DHT22;16814;52.118;11.436;2023-02-02T17:38:07;4.30;99.90
29571;DHT22;16814;52.118;11.436;2023-02-02T17:40:34;4.20;99.90
29571;DHT22;16814;52.118;11.436;2023-02-02T17:43:09;4.20;99.90
29571;DHT22;16814;52.118;11.436;2023-02-02T17:45:36;4.20;99.90
29571;DHT22;16814;52.118;11.436;2023-02-02T17:48:08;4.00;99.90
29571;DHT22;16814;52.118;11.436;2023-02-02T17:50:40;3.90;99.90
29571;DHT22;16814;52.118;11.436;2023-02-02T17:53:10;3.90;99.90
29571;DHT22;16814;52.118;11.436;2023-02-02T17:55:39;3.70;99.90
29571;DHT22;16814;52.118;11.436;2023-02-02T17:58:10;3.80;99.90
29571;DHT22;16814;52.118;11.436;2023-02-02T18:00:38;3.90;99.90
29571;DHT22;16814;52.118;11.436;2023-02-02T18:05:33;4.10;99.90
29571;DHT22;16814;52.118;11.436;2023-02-02T18:08:00;4.10;99.90
29571;DHT22;16814;52.118;11.436;2023-02-02T18:10:27;4.10;99.90
29571;DHT22;16814;52.118;11.436;2023-02-02T18:12:56;4.10;99.90
29571;DHT22;16814;52.118;11.436;2023-02-02T18:15:26;4.00;99.90
29571;DHT22;16814;52.118;11.436;2023-02-02T18:17:54;3.80;99.90
29571;DHT22;16814;52.118;11.436;2023-02-02T18:20:21;3.90;99.90
29571;DHT22;16814;52.118;11.436;2023-02-02T18:22:52;3.80;99.90
29571;DHT22;16814;52.118;11.436;2023-02-02T18:25:19;3.80;99.90
29571;DHT22;16814;52.118;11.436;2023-02-02T18:27:46;3.80;99.90
29571;DHT22;16814;52.118;11.436;2023-02-02T18:30:17;3.80;99.90
29571;DHT22;16814;52.118;11.436;2023-02-02T18:32:43;4.00;99.90
29571;DHT22;16814;52.118;11.436;2023-02-02T18:35:11;4.10;99.90
29571;DHT22;16814;52.118;11.436;2023-02-02T18:37:39;4.10;99.90
29571;DHT22;16814;52.118;11.436;2023-02-02T18:40:08;4.10;99.90
29571;DHT22;16814;52.118;11.436;2023-02-02T18:42:34;4.10;99.90
29571;DHT22;16814;52.118;11.436;2023-02-02T18:45:02;4.10;99.90